HORIZON KINETICS ASSET MANAGEMENT LLC, 10% owner of TPL - Past Performance as of 09/20/19. Total 93 Records. Link to Thomson Financial
Buy(P) /
Sell(S)
P/S date Filed Date Company Symbol Insider Relationship Share Amt. Unit Price Total Proceeds Shares Owned Return(1m) Details
P 2019-09-17 2019-09-18 12:30:51.0 TEXAS PACIFIC LAND TRUST TPL HORIZON KINETICS ASSET MANAGEMENT LLC 10% owner 43 $698.31 $30,027.30 301,507 view
P 2019-09-16 2019-09-17 12:54:16.0 TEXAS PACIFIC LAND TRUST TPL HORIZON KINETICS ASSET MANAGEMENT LLC 10% owner 49 $705.71 $34,579.80 301,464 view
P 2019-09-13 2019-09-16 12:24:46.0 TEXAS PACIFIC LAND TRUST TPL HORIZON KINETICS ASSET MANAGEMENT LLC 10% owner 49 $673.78 $33,015.20 301,415 view
P 2019-09-12 2019-09-13 12:32:24.0 TEXAS PACIFIC LAND TRUST TPL HORIZON KINETICS ASSET MANAGEMENT LLC 10% owner 49 $663.00 $32,487.00 301,366 view
P 2019-09-11 2019-09-12 11:32:55.0 TEXAS PACIFIC LAND TRUST TPL HORIZON KINETICS ASSET MANAGEMENT LLC 10% owner 49 $655.86 $32,137.10 301,317 view
P 2019-09-10 2019-09-11 11:11:43.0 TEXAS PACIFIC LAND TRUST TPL HORIZON KINETICS ASSET MANAGEMENT LLC 10% owner 49 $659.40 $32,310.60 301,268 view
P 2019-09-09 2019-09-10 10:53:10.0 TEXAS PACIFIC LAND TRUST TPL HORIZON KINETICS ASSET MANAGEMENT LLC 10% owner 49 $686.90 $33,658.10 301,219 view
P 2019-09-06 2019-09-09 11:30:33.0 TEXAS PACIFIC LAND TRUST TPL HORIZON KINETICS ASSET MANAGEMENT LLC 10% owner 49 $697.48 $34,176.50 301,170 view
P 2019-09-05 2019-09-06 11:19:48.0 TEXAS PACIFIC LAND TRUST TPL HORIZON KINETICS ASSET MANAGEMENT LLC 10% owner 49 $706.50 $34,618.50 301,121 view
P 2019-09-04 2019-09-05 12:12:14.0 TEXAS PACIFIC LAND TRUST TPL HORIZON KINETICS ASSET MANAGEMENT LLC 10% owner 49 $670.27 $32,843.20 301,072 view
P 2019-09-03 2019-09-04 10:59:14.0 TEXAS PACIFIC LAND TRUST TPL HORIZON KINETICS ASSET MANAGEMENT LLC 10% owner 49 $653.89 $32,040.60 301,023 view
P 2019-08-30 2019-09-03 11:40:20.0 TEXAS PACIFIC LAND TRUST TPL HORIZON KINETICS ASSET MANAGEMENT LLC 10% owner 49 $654.60 $32,075.40 300,974 view
P 2019-08-29 2019-08-30 12:52:04.0 TEXAS PACIFIC LAND TRUST TPL HORIZON KINETICS ASSET MANAGEMENT LLC 10% owner 54 $656.10 $35,429.40 300,925 view
P 2019-08-28 2019-08-29 11:10:49.0 TEXAS PACIFIC LAND TRUST TPL HORIZON KINETICS ASSET MANAGEMENT LLC 10% owner 49 $641.58 $31,437.40 300,871 view
P 2019-08-27 2019-08-28 11:22:29.0 TEXAS PACIFIC LAND TRUST TPL HORIZON KINETICS ASSET MANAGEMENT LLC 10% owner 49 $637.50 $31,237.50 300,822 view
P 2019-08-26 2019-08-27 12:05:12.0 TEXAS PACIFIC LAND TRUST TPL HORIZON KINETICS ASSET MANAGEMENT LLC 10% owner 49 $636.08 $31,167.90 300,773 view
P 2019-08-23 2019-08-26 11:32:44.0 TEXAS PACIFIC LAND TRUST TPL HORIZON KINETICS ASSET MANAGEMENT LLC 10% owner 49 $668.39 $32,751.10 300,724 view
P 2019-08-22 2019-08-23 10:52:38.0 TEXAS PACIFIC LAND TRUST TPL HORIZON KINETICS ASSET MANAGEMENT LLC 10% owner 49 $674.50 $33,050.50 300,675 view
P 2019-08-21 2019-08-22 11:27:04.0 TEXAS PACIFIC LAND TRUST TPL HORIZON KINETICS ASSET MANAGEMENT LLC 10% owner 49 $669.37 $32,799.10 300,626 view
P 2019-08-20 2019-08-21 10:59:49.0 TEXAS PACIFIC LAND TRUST TPL HORIZON KINETICS ASSET MANAGEMENT LLC 10% owner 49 $666.50 $32,658.50 300,577 view
P 2019-08-19 2019-08-20 11:07:15.0 TEXAS PACIFIC LAND TRUST TPL HORIZON KINETICS ASSET MANAGEMENT LLC 10% owner 49 $679.36 $33,288.60 300,528 view
P 2019-08-16 2019-08-19 12:13:27.0 TEXAS PACIFIC LAND TRUST TPL HORIZON KINETICS ASSET MANAGEMENT LLC 10% owner 49 $671.46 $32,901.50 300,479 view
P 2019-08-15 2019-08-16 11:12:23.0 TEXAS PACIFIC LAND TRUST TPL HORIZON KINETICS ASSET MANAGEMENT LLC 10% owner 49 $649.73 $31,836.80 300,430 view
P 2019-08-14 2019-08-15 11:16:20.0 TEXAS PACIFIC LAND TRUST TPL HORIZON KINETICS ASSET MANAGEMENT LLC 10% owner 188 $641.00 $120,508.00 300,381 view
P 2019-08-13 2019-08-14 11:36:36.0 TEXAS PACIFIC LAND TRUST TPL HORIZON KINETICS ASSET MANAGEMENT LLC 10% owner 49 $688.78 $33,750.20 300,193 view
P 2019-08-12 2019-08-13 11:27:18.0 TEXAS PACIFIC LAND TRUST TPL HORIZON KINETICS ASSET MANAGEMENT LLC 10% owner 49 $679.65 $33,302.90 300,144 view
P 2019-08-09 2019-08-12 10:07:19.0 TEXAS PACIFIC LAND TRUST TPL HORIZON KINETICS ASSET MANAGEMENT LLC 10% owner 49 $673.70 $33,011.30 300,095 view
P 2019-08-08 2019-08-09 11:06:21.0 TEXAS PACIFIC LAND TRUST TPL HORIZON KINETICS ASSET MANAGEMENT LLC 10% owner 49 $674.39 $33,045.10 300,046 view
P 2019-08-07 2019-08-08 10:57:18.0 TEXAS PACIFIC LAND TRUST TPL HORIZON KINETICS ASSET MANAGEMENT LLC 10% owner 49 $659.12 $32,296.90 299,997 view
P 2019-08-06 2019-08-07 10:19:07.0 TEXAS PACIFIC LAND TRUST TPL HORIZON KINETICS ASSET MANAGEMENT LLC 10% owner 49 $681.00 $33,369.00 299,948 view
P 2019-08-05 2019-08-06 10:12:53.0 TEXAS PACIFIC LAND TRUST TPL HORIZON KINETICS ASSET MANAGEMENT LLC 10% owner 49 $689.76 $33,798.20 299,899 view
P 2019-08-02 2019-08-05 09:57:00.0 TEXAS PACIFIC LAND TRUST TPL HORIZON KINETICS ASSET MANAGEMENT LLC 10% owner 49 $720.23 $35,291.30 299,850 view
P 2019-08-01 2019-08-02 10:40:44.0 TEXAS PACIFIC LAND TRUST TPL HORIZON KINETICS ASSET MANAGEMENT LLC 10% owner 49 $759.85 $37,232.60 299,801 view
P 2019-07-31 2019-08-01 14:34:05.0 TEXAS PACIFIC LAND TRUST TPL HORIZON KINETICS ASSET MANAGEMENT LLC 10% owner 49 $800.00 $39,200.00 299,752 view
P 2019-07-30 2019-07-31 11:19:53.0 TEXAS PACIFIC LAND TRUST TPL HORIZON KINETICS ASSET MANAGEMENT LLC 10% owner 49 $755.49 $37,019.00 299,703 view
P 2019-07-29 2019-07-30 16:30:11.0 TEXAS PACIFIC LAND TRUST TPL HORIZON KINETICS ASSET MANAGEMENT LLC 10% owner 49 $740.50 $36,284.50 299,654 view
P 2019-07-26 2019-07-29 11:37:23.0 TEXAS PACIFIC LAND TRUST TPL HORIZON KINETICS ASSET MANAGEMENT LLC 10% owner 49 $749.50 $36,725.50 299,605 view
P 2019-07-25 2019-07-26 11:36:36.0 TEXAS PACIFIC LAND TRUST TPL HORIZON KINETICS ASSET MANAGEMENT LLC 10% owner 49 $744.49 $36,480.00 299,556 view
P 2019-07-24 2019-07-25 12:05:46.0 TEXAS PACIFIC LAND TRUST TPL HORIZON KINETICS ASSET MANAGEMENT LLC 10% owner 49 $753.12 $36,902.90 299,507 view
P 2019-07-23 2019-07-24 11:08:53.0 TEXAS PACIFIC LAND TRUST TPL HORIZON KINETICS ASSET MANAGEMENT LLC 10% owner 49 $749.44 $36,722.60 299,458 view
P 2019-07-22 2019-07-23 10:40:43.0 TEXAS PACIFIC LAND TRUST TPL HORIZON KINETICS ASSET MANAGEMENT LLC 10% owner 49 $768.84 $37,673.20 299,409 view
P 2019-07-19 2019-07-22 11:31:08.0 TEXAS PACIFIC LAND TRUST TPL HORIZON KINETICS ASSET MANAGEMENT LLC 10% owner 49 $764.50 $37,460.50 299,360 view
P 2019-07-18 2019-07-19 11:01:27.0 TEXAS PACIFIC LAND TRUST TPL HORIZON KINETICS ASSET MANAGEMENT LLC 10% owner 49 $759.50 $37,215.50 299,311 view
P 2019-07-17 2019-07-18 16:15:57.0 TEXAS PACIFIC LAND TRUST TPL HORIZON KINETICS ASSET MANAGEMENT LLC 10% owner 157 $769.49 $120,810.00 299,262 view
P 2019-07-16 2019-07-17 10:55:54.0 TEXAS PACIFIC LAND TRUST TPL HORIZON KINETICS ASSET MANAGEMENT LLC 10% owner 49 $779.61 $38,200.90 299,105 view
P 2019-07-15 2019-07-16 12:12:24.0 TEXAS PACIFIC LAND TRUST TPL HORIZON KINETICS ASSET MANAGEMENT LLC 10% owner 49 $795.00 $38,955.00 299,056 view
P 2019-07-12 2019-07-15 11:12:38.0 TEXAS PACIFIC LAND TRUST TPL HORIZON KINETICS ASSET MANAGEMENT LLC 10% owner 49 $798.15 $39,109.40 299,007 view
P 2019-07-11 2019-07-12 11:46:55.0 TEXAS PACIFIC LAND TRUST TPL HORIZON KINETICS ASSET MANAGEMENT LLC 10% owner 49 $808.89 $39,635.60 298,958 view
P 2019-07-10 2019-07-11 12:10:52.0 TEXAS PACIFIC LAND TRUST TPL HORIZON KINETICS ASSET MANAGEMENT LLC 10% owner 50 $797.58 $39,879.00 298,909 view
P 2019-07-08 2019-07-09 11:44:52.0 TEXAS PACIFIC LAND TRUST TPL HORIZON KINETICS ASSET MANAGEMENT LLC 10% owner 50 $810.20 $40,510.00 298,809 view
P 2019-07-05 2019-07-08 11:16:13.0 TEXAS PACIFIC LAND TRUST TPL HORIZON KINETICS ASSET MANAGEMENT LLC 10% owner 50 $798.67 $39,933.50 298,759 view
P 2019-07-03 2019-07-05 11:22:06.0 TEXAS PACIFIC LAND TRUST TPL HORIZON KINETICS ASSET MANAGEMENT LLC 10% owner 50 $793.74 $39,687.00 298,709 view
P 2019-07-02 2019-07-03 10:59:55.0 TEXAS PACIFIC LAND TRUST TPL HORIZON KINETICS ASSET MANAGEMENT LLC 10% owner 50 $811.04 $40,552.00 298,659 view
P 2019-07-01 2019-07-02 12:23:21.0 TEXAS PACIFIC LAND TRUST TPL HORIZON KINETICS ASSET MANAGEMENT LLC 10% owner 50 $799.99 $39,999.50 298,609 view
P 2019-06-28 2019-07-01 11:27:16.0 TEXAS PACIFIC LAND TRUST TPL HORIZON KINETICS ASSET MANAGEMENT LLC 10% owner 50 $795.24 $39,762.00 298,559 view
P 2019-06-27 2019-06-28 11:17:44.0 TEXAS PACIFIC LAND TRUST TPL HORIZON KINETICS ASSET MANAGEMENT LLC 10% owner 50 $785.98 $39,299.00 298,509 view
P 2019-06-26 2019-06-27 11:24:38.0 TEXAS PACIFIC LAND TRUST TPL HORIZON KINETICS ASSET MANAGEMENT LLC 10% owner 50 $817.18 $40,859.00 298,459 view
P 2019-06-25 2019-06-26 14:01:20.0 TEXAS PACIFIC LAND TRUST TPL HORIZON KINETICS ASSET MANAGEMENT LLC 10% owner 50 $787.20 $39,360.00 298,409 view
P 2019-06-24 2019-06-25 10:58:50.0 TEXAS PACIFIC LAND TRUST TPL HORIZON KINETICS ASSET MANAGEMENT LLC 10% owner 50 $782.12 $39,106.00 298,359 view
P 2019-06-21 2019-06-24 11:50:01.0 TEXAS PACIFIC LAND TRUST TPL HORIZON KINETICS ASSET MANAGEMENT LLC 10% owner 50 $791.07 $39,553.50 298,309 view
P 2019-06-20 2019-06-21 11:08:33.0 TEXAS PACIFIC LAND TRUST TPL HORIZON KINETICS ASSET MANAGEMENT LLC 10% owner 50 $796.72 $39,836.00 298,259 view
P 2019-06-19 2019-06-20 11:15:25.0 TEXAS PACIFIC LAND TRUST TPL HORIZON KINETICS ASSET MANAGEMENT LLC 10% owner 50 $755.88 $37,794.00 298,209 view
P 2019-06-18 2019-06-19 11:19:03.0 TEXAS PACIFIC LAND TRUST TPL HORIZON KINETICS ASSET MANAGEMENT LLC 10% owner 50 $735.09 $36,754.50 298,159 view
P 2019-06-17 2019-06-18 12:10:32.0 TEXAS PACIFIC LAND TRUST TPL HORIZON KINETICS ASSET MANAGEMENT LLC 10% owner 50 $718.96 $35,948.00 298,109 view
P 2019-06-14 2019-06-17 12:27:14.0 TEXAS PACIFIC LAND TRUST TPL HORIZON KINETICS ASSET MANAGEMENT LLC 10% owner 50 $739.99 $36,999.50 298,059 view
P 2019-06-13 2019-06-14 13:44:15.0 TEXAS PACIFIC LAND TRUST TPL HORIZON KINETICS ASSET MANAGEMENT LLC 10% owner 50 $726.13 $36,306.50 298,009 view
P 2019-06-12 2019-06-13 12:30:20.0 TEXAS PACIFIC LAND TRUST TPL HORIZON KINETICS ASSET MANAGEMENT LLC 10% owner 50 $744.22 $37,211.00 297,959 view
P 2019-06-11 2019-06-12 11:14:10.0 TEXAS PACIFIC LAND TRUST TPL HORIZON KINETICS ASSET MANAGEMENT LLC 10% owner 50 $771.11 $38,555.50 297,909 view
P 2019-06-10 2019-06-11 11:02:54.0 TEXAS PACIFIC LAND TRUST TPL HORIZON KINETICS ASSET MANAGEMENT LLC 10% owner 50 $764.77 $38,238.50 297,859 view
P 2019-06-07 2019-06-10 11:15:34.0 TEXAS PACIFIC LAND TRUST TPL HORIZON KINETICS ASSET MANAGEMENT LLC 10% owner 50 $749.91 $37,495.50 297,809 view
P 2019-06-06 2019-06-07 11:14:59.0 TEXAS PACIFIC LAND TRUST TPL HORIZON KINETICS ASSET MANAGEMENT LLC 10% owner 175 $740.80 $129,640.00 297,759 view
P 2019-06-05 2019-06-06 11:17:38.0 TEXAS PACIFIC LAND TRUST TPL HORIZON KINETICS ASSET MANAGEMENT LLC 10% owner 50 $730.07 $36,503.50 297,584 view
P 2019-06-04 2019-06-05 11:45:35.0 TEXAS PACIFIC LAND TRUST TPL HORIZON KINETICS ASSET MANAGEMENT LLC 10% owner 50 $732.78 $36,639.00 297,534 view
P 2019-06-03 2019-06-04 11:04:03.0 TEXAS PACIFIC LAND TRUST TPL HORIZON KINETICS ASSET MANAGEMENT LLC 10% owner 50 $738.78 $36,939.00 297,484 view
P 2019-05-31 2019-06-03 11:32:02.0 TEXAS PACIFIC LAND TRUST TPL HORIZON KINETICS ASSET MANAGEMENT LLC 10% owner 50 $752.07 $37,603.50 297,434 view
P 2019-05-30 2019-05-31 10:47:25.0 TEXAS PACIFIC LAND TRUST TPL HORIZON KINETICS ASSET MANAGEMENT LLC 10% owner 50 $799.00 $39,950.00 297,384 view
P 2019-05-29 2019-05-30 11:21:02.0 TEXAS PACIFIC LAND TRUST TPL HORIZON KINETICS ASSET MANAGEMENT LLC 10% owner 50 $813.21 $40,660.50 297,334 view
P 2019-05-28 2019-05-29 11:12:40.0 TEXAS PACIFIC LAND TRUST TPL HORIZON KINETICS ASSET MANAGEMENT LLC 10% owner 50 $790.32 $39,516.00 297,284 view
P 2019-05-24 2019-05-28 12:38:35.0 TEXAS PACIFIC LAND TRUST TPL HORIZON KINETICS ASSET MANAGEMENT LLC 10% owner 50 $790.09 $39,504.50 297,234 view
P 2019-05-23 2019-05-24 11:47:35.0 TEXAS PACIFIC LAND TRUST TPL HORIZON KINETICS ASSET MANAGEMENT LLC 10% owner 36 $792.09 $28,515.20 297,184 view
P 2019-05-22 2019-05-23 11:53:52.0 TEXAS PACIFIC LAND TRUST TPL HORIZON KINETICS ASSET MANAGEMENT LLC 10% owner 36 $831.23 $29,924.30 297,148 view
P 2019-05-21 2019-05-22 11:05:17.0 TEXAS PACIFIC LAND TRUST TPL HORIZON KINETICS ASSET MANAGEMENT LLC 10% owner 36 $849.48 $30,581.30 297,112 view
P 2019-05-20 2019-05-21 10:42:01.0 TEXAS PACIFIC LAND TRUST TPL HORIZON KINETICS ASSET MANAGEMENT LLC 10% owner 36 $860.09 $30,963.20 297,076 view
P 2019-05-17 2019-05-20 10:15:03.0 TEXAS PACIFIC LAND TRUST TPL HORIZON KINETICS ASSET MANAGEMENT LLC 10% owner 36 $845.42 $30,435.10 297,040 view
P 2019-05-16 2019-05-17 10:05:01.0 TEXAS PACIFIC LAND TRUST TPL HORIZON KINETICS ASSET MANAGEMENT LLC 10% owner 36 $842.57 $30,332.50 297,004 view
P 2019-05-15 2019-05-16 11:35:31.0 TEXAS PACIFIC LAND TRUST TPL HORIZON KINETICS ASSET MANAGEMENT LLC 10% owner 36 $837.84 $30,162.20 296,968 view
P 2019-05-14 2019-05-15 11:35:46.0 TEXAS PACIFIC LAND TRUST TPL HORIZON KINETICS ASSET MANAGEMENT LLC 10% owner 36 $805.73 $29,006.30 296,932 view
P 2019-05-13 2019-05-14 10:55:25.0 TEXAS PACIFIC LAND TRUST TPL HORIZON KINETICS ASSET MANAGEMENT LLC 10% owner 36 $787.20 $28,339.20 296,896 view
P 2019-05-10 2019-05-13 11:34:04.0 TEXAS PACIFIC LAND TRUST TPL HORIZON KINETICS ASSET MANAGEMENT LLC 10% owner 36 $780.78 $28,108.10 296,860 view
P 2019-05-09 2019-05-10 11:14:32.0 TEXAS PACIFIC LAND TRUST TPL HORIZON KINETICS ASSET MANAGEMENT LLC 10% owner 36 $779.99 $28,079.60 296,824 view
P 2019-05-08 2019-05-09 11:05:25.0 TEXAS PACIFIC LAND TRUST TPL HORIZON KINETICS ASSET MANAGEMENT LLC 10% owner 36 $799.98 $28,799.30 296,788 view
P 2019-05-07 2019-05-08 11:31:45.0 TEXAS PACIFIC LAND TRUST TPL HORIZON KINETICS ASSET MANAGEMENT LLC 10% owner 36 $781.21 $28,123.60 296,752 view
P 2019-05-06 2019-05-07 12:36:17.0 TEXAS PACIFIC LAND TRUST TPL HORIZON KINETICS ASSET MANAGEMENT LLC 10% owner 36 $807.23 $29,060.30 296,716 view
* Filed by insider as open market transaction, but marked as private transaction by insidercow's proprietary method